createdAt,value
2023-03-26T00:01:29.721Z,99139.59
2023-03-26T00:03:57.492Z,99125.56
2023-03-26T00:06:26.984Z,99131.53
2023-03-26T00:08:54.517Z,99152.53
2023-03-26T00:11:22.998Z,99126.88
2023-03-26T00:13:50.685Z,99143.31
2023-03-26T00:16:19.776Z,99159.03
2023-03-26T00:18:48.958Z,99164.44
2023-03-26T00:21:17.751Z,99175.59
2023-03-26T00:23:44.794Z,99175.34
2023-03-26T00:26:11.475Z,99170.91
2023-03-26T00:28:40.524Z,99148.72
2023-03-26T00:31:10.660Z,99172.59
2023-03-26T00:33:40.729Z,99185.16
2023-03-26T00:36:10.981Z,99197.97
2023-03-26T00:38:41.466Z,99175.31
2023-03-26T00:41:18.058Z,99184.06
2023-03-26T00:43:48.921Z,99164.75
2023-03-26T00:46:17.501Z,99169.50
2023-03-26T00:48:46.010Z,99177.00
2023-03-26T00:51:18.110Z,99184.31
2023-03-26T00:53:47.029Z,99169.34
2023-03-26T00:56:14.307Z,99169.34
2023-03-26T00:58:41.492Z,99159.13
2023-03-26T01:01:13.665Z,99154.47
2023-03-26T01:03:45.847Z,99158.78
2023-03-26T01:06:32.926Z,99151.97
2023-03-26T01:09:05.608Z,99153.16
2023-03-26T01:11:35.034Z,99150.63
2023-03-26T01:14:14.998Z,99164.97
2023-03-26T01:16:56.309Z,99155.50
2023-03-26T01:19:38.284Z,99153.59
2023-03-26T01:22:09.657Z,99140.78
2023-03-26T01:24:36.394Z,99151.06
2023-03-26T01:27:17.799Z,99152.94
2023-03-26T01:29:52.817Z,99123.19
2023-03-26T01:32:52.864Z,99134.81
2023-03-26T01:35:38.552Z,99150.63
2023-03-26T01:38:14.196Z,99159.72
2023-03-26T01:40:43.662Z,99149.19
2023-03-26T01:43:18.042Z,99155.53
2023-03-26T01:45:47.806Z,99187.19
2023-03-26T01:48:14.390Z,99154.94
2023-03-26T01:50:41.294Z,99144.50
2023-03-26T01:53:10.361Z,99160.88
2023-03-26T01:55:49.755Z,99163.03
2023-03-26T01:58:36.285Z,99146.31
2023-03-26T02:01:20.062Z,99135.00
2023-03-26T02:03:57.763Z,99146.97
2023-03-26T02:06:45.997Z,99166.38
2023-03-26T02:09:17.531Z,99161.78
2023-03-26T02:11:45.923Z,99159.25
2023-03-26T02:14:14.600Z,99155.25
2023-03-26T02:16:41.200Z,99162.56
2023-03-26T02:19:15.500Z,99145.94
2023-03-26T02:21:46.842Z,99144.88
2023-03-26T02:24:13.412Z,99156.97
2023-03-26T02:26:39.990Z,99148.63
2023-03-26T02:29:06.551Z,99160.97
2023-03-26T02:31:33.178Z,99156.72
2023-03-26T02:33:59.711Z,99161.56
2023-03-26T02:36:28.148Z,99159.03
2023-03-26T02:38:57.995Z,99165.59
2023-03-26T02:41:24.735Z,99161.25
2023-03-26T02:43:51.637Z,99170.97
2023-03-26T02:46:18.272Z,99158.56
2023-03-26T02:48:44.944Z,99152.22
2023-03-26T02:51:11.503Z,99157.09
2023-03-26T02:53:39.494Z,99161.03
2023-03-26T02:56:06.956Z,99160.94
2023-03-26T02:58:33.500Z,99165.56
2023-03-26T03:01:03.142Z,99164.59
2023-03-26T03:03:30.607Z,99154.06
2023-03-26T03:05:58.110Z,99153.88
2023-03-26T03:08:28.137Z,99152.38
2023-03-26T03:11:02.023Z,99157.63
2023-03-26T03:13:28.746Z,99154.44
2023-03-26T03:15:56.103Z,99167.72
2023-03-26T03:18:22.989Z,99159.84
2023-03-26T03:20:50.034Z,99154.38
2023-03-26T03:23:17.318Z,99157.66
2023-03-26T03:25:43.896Z,99144.28
2023-03-26T03:28:11.185Z,99156.84
2023-03-26T03:30:37.986Z,99165.66
2023-03-26T03:33:06.146Z,99161.38
2023-03-26T03:35:33.732Z,99152.72
2023-03-26T03:38:01.258Z,99150.19
2023-03-26T03:40:28.072Z,99165.25
2023-03-26T03:42:54.689Z,99154.56
2023-03-26T03:45:21.440Z,99158.97
2023-03-26T03:47:48.126Z,99150.75
2023-03-26T03:50:14.765Z,99151.94
2023-03-26T03:52:41.281Z,99156.56
2023-03-26T03:55:10.557Z,99146.53
2023-03-26T03:57:37.264Z,99159.25
2023-03-26T04:00:06.317Z,99157.38
2023-03-26T04:02:35.981Z,99142.13
2023-03-26T04:05:06.391Z,99160.97
2023-03-26T04:07:33.454Z,99148.47
2023-03-26T04:10:02.897Z,99151.72
2023-03-26T04:12:30.525Z,99146.25
2023-03-26T04:14:58.184Z,99153.09
2023-03-26T04:17:25.660Z,99126.44
2023-03-26T04:19:55.465Z,99161.50
2023-03-26T04:22:23.536Z,99146.66
2023-03-26T04:24:50.224Z,99132.03
2023-03-26T04:27:27.533Z,99147.81
2023-03-26T04:29:57.423Z,99132.59
2023-03-26T04:32:29.760Z,99148.69
2023-03-26T04:35:00.375Z,99136.91
2023-03-26T04:37:41.654Z,99129.50
2023-03-26T04:40:16.815Z,99126.28
2023-03-26T04:42:46.216Z,99134.91
2023-03-26T04:45:15.609Z,99141.06
2023-03-26T04:47:42.255Z,99143.59
2023-03-26T04:50:10.641Z,99147.19
2023-03-26T04:52:38.482Z,99126.38
2023-03-26T04:55:13.812Z,99130.75
2023-03-26T04:57:46.172Z,99133.06
2023-03-26T05:00:16.430Z,99127.09
2023-03-26T05:02:43.625Z,99138.75
2023-03-26T05:05:10.822Z,99130.00
2023-03-26T05:07:37.896Z,99128.91
2023-03-26T05:10:05.195Z,99125.75
2023-03-26T05:12:31.768Z,99133.66
2023-03-26T05:14:58.315Z,99139.34
2023-03-26T05:17:25.769Z,99129.06
2023-03-26T05:19:52.569Z,99130.00
2023-03-26T05:22:19.491Z,99129.50
2023-03-26T05:24:46.007Z,99136.03
2023-03-26T05:27:20.227Z,99139.13
2023-03-26T05:29:46.821Z,99126.06
2023-03-26T05:32:13.523Z,99141.13
2023-03-26T05:34:41.569Z,99139.34
2023-03-26T05:37:09.155Z,99139.66
2023-03-26T05:39:35.751Z,99142.94
2023-03-26T05:42:02.725Z,99147.34
2023-03-26T05:44:29.383Z,99144.41
2023-03-26T05:46:55.913Z,99140.91
2023-03-26T05:49:22.497Z,99142.81
2023-03-26T05:51:49.044Z,99151.34
2023-03-26T05:54:15.655Z,99138.81
2023-03-26T05:56:42.214Z,99141.03
2023-03-26T05:59:08.865Z,99145.72
2023-03-26T06:01:35.363Z,99143.59
2023-03-26T06:04:02.071Z,99152.38
2023-03-26T06:06:28.601Z,99152.19
2023-03-26T06:09:01.523Z,99145.69
2023-03-26T06:11:30.805Z,99143.84
2023-03-26T06:13:57.848Z,99141.69
2023-03-26T06:16:27.074Z,99152.41
2023-03-26T06:18:56.921Z,99156.22
2023-03-26T06:21:28.091Z,99153.41
2023-03-26T06:23:55.711Z,99150.94
2023-03-26T06:26:22.317Z,99147.59
2023-03-26T06:28:49.001Z,99138.75
2023-03-26T06:31:17.307Z,99142.94
2023-03-26T06:33:43.919Z,99145.97
2023-03-26T06:36:10.795Z,99125.34
2023-03-26T06:38:37.349Z,99139.38
2023-03-26T06:41:06.187Z,99144.31
2023-03-26T06:43:33.952Z,99151.88
2023-03-26T06:46:01.438Z,99141.06
2023-03-26T06:48:28.106Z,99130.75
2023-03-26T06:50:55.438Z,99130.88
2023-03-26T06:53:22.209Z,99137.84
2023-03-26T06:55:48.794Z,99145.50
2023-03-26T06:58:16.686Z,99134.59
2023-03-26T07:00:43.357Z,99134.84
2023-03-26T07:03:11.427Z,99137.22
2023-03-26T07:05:40.661Z,99141.31
2023-03-26T07:08:07.249Z,99152.34
2023-03-26T07:10:33.828Z,99130.50
2023-03-26T07:13:00.401Z,99132.06
2023-03-26T07:15:28.940Z,99142.88
2023-03-26T07:17:56.319Z,99146.34
2023-03-26T07:20:23.660Z,99146.84
2023-03-26T07:22:51.085Z,99135.22
2023-03-26T07:25:19.098Z,99127.53
2023-03-26T07:28:06.410Z,99135.22
2023-03-26T07:31:07.416Z,99141.91
2023-03-26T07:33:46.870Z,99113.94
2023-03-26T07:36:16.229Z,99132.91
2023-03-26T07:39:00.220Z,99134.59
2023-03-26T07:41:49.595Z,99130.75
2023-03-26T07:44:25.271Z,99131.72
2023-03-26T07:46:53.357Z,99128.97
2023-03-26T07:49:20.550Z,99119.13
2023-03-26T07:51:48.973Z,99124.13
2023-03-26T07:54:15.912Z,99116.78
2023-03-26T07:57:07.306Z,99124.31
2023-03-26T08:00:09.137Z,99127.72
2023-03-26T08:03:02.652Z,99124.56
2023-03-26T08:05:37.275Z,99122.50
2023-03-26T08:08:38.207Z,99130.78
2023-03-26T08:11:23.369Z,99123.75
2023-03-26T08:14:27.696Z,99122.91
2023-03-26T08:17:10.687Z,99122.19
2023-03-26T08:20:05.853Z,99127.72
2023-03-26T08:22:41.182Z,99111.41
2023-03-26T08:25:27.574Z,99128.31
2023-03-26T08:28:22.097Z,99123.59
2023-03-26T08:30:48.774Z,99119.69
2023-03-26T08:33:19.133Z,99123.28
2023-03-26T08:35:46.790Z,99117.06
2023-03-26T08:38:15.683Z,99122.78
2023-03-26T08:41:03.831Z,99115.09
2023-03-26T08:44:04.746Z,99121.97
2023-03-26T08:46:43.536Z,99106.78
2023-03-26T08:49:33.530Z,99113.38
2023-03-26T08:52:42.691Z,99106.88
2023-03-26T08:55:28.330Z,99106.88
2023-03-26T08:58:09.769Z,99100.91
2023-03-26T09:00:58.036Z,99091.44
2023-03-26T09:03:47.603Z,99098.28
2023-03-26T09:06:43.350Z,99088.56
2023-03-26T09:09:51.499Z,99081.34
2023-03-26T09:12:53.022Z,99088.03
2023-03-26T09:15:58.106Z,99082.88
2023-03-26T09:18:45.547Z,99076.47
2023-03-26T09:21:34.065Z,99075.44
2023-03-26T09:24:38.228Z,99074.19
2023-03-26T09:27:11.100Z,99075.44
2023-03-26T09:30:15.647Z,99067.22
2023-03-26T09:32:54.216Z,99074.47
2023-03-26T09:35:45.660Z,99062.44
2023-03-26T09:38:49.594Z,99060.59
2023-03-26T09:41:37.908Z,99058.66
2023-03-26T09:44:23.160Z,99046.78
2023-03-26T09:47:22.313Z,99037.16
2023-03-26T09:50:15.779Z,99033.78
2023-03-26T09:53:07.158Z,99035.91
2023-03-26T09:55:39.351Z,99032.69
2023-03-26T09:58:11.536Z,99044.13
2023-03-26T10:00:48.526Z,99042.59
2023-03-26T10:03:47.914Z,99037.56
2023-03-26T10:06:45.910Z,99028.22
2023-03-26T10:09:24.629Z,99044.84
2023-03-26T10:12:06.356Z,99028.38
2023-03-26T10:14:40.569Z,99022.66
2023-03-26T10:17:20.407Z,99029.50
2023-03-26T10:20:09.852Z,99020.97
2023-03-26T10:22:45.395Z,99004.09
2023-03-26T10:25:11.863Z,99013.88
2023-03-26T10:27:50.703Z,98996.69
2023-03-26T10:30:47.920Z,98997.94
2023-03-26T10:33:23.997Z,98994.88
2023-03-26T10:36:13.441Z,98985.81
2023-03-26T10:39:36.196Z,98988.72
2023-03-26T10:42:26.476Z,98983.38
2023-03-26T10:45:15.495Z,98965.25
2023-03-26T10:48:03.498Z,98961.66
2023-03-26T10:51:02.622Z,98959.28
2023-03-26T10:53:37.351Z,98945.81
2023-03-26T10:56:34.208Z,98938.41
2023-03-26T10:59:12.302Z,98932.34
2023-03-26T11:02:04.797Z,98927.69
2023-03-26T11:04:41.844Z,98921.75
2023-03-26T11:07:13.377Z,98925.94
2023-03-26T11:09:59.326Z,98926.84
2023-03-26T11:12:41.593Z,98929.28
2023-03-26T11:15:17.197Z,98918.81
2023-03-26T11:17:57.256Z,98920.28
2023-03-26T11:20:51.017Z,98897.91
2023-03-26T11:23:32.461Z,98902.47
2023-03-26T11:26:07.294Z,98903.03
2023-03-26T11:29:03.241Z,98900.16
2023-03-26T11:32:06.591Z,98894.75
2023-03-26T11:34:58.660Z,98892.09
2023-03-26T11:37:32.743Z,98896.44
2023-03-26T11:40:03.808Z,98902.03
2023-03-26T11:42:30.927Z,98898.72
2023-03-26T11:45:01.162Z,98886.00
2023-03-26T11:48:04.119Z,98884.56
2023-03-26T11:50:35.225Z,98869.59
2023-03-26T11:53:22.505Z,98873.53
2023-03-26T11:56:01.205Z,98870.19
2023-03-26T11:59:01.313Z,98873.00
2023-03-26T12:01:46.506Z,98874.69
2023-03-26T12:04:17.028Z,98874.00
2023-03-26T12:07:00.505Z,98880.59
2023-03-26T12:09:29.313Z,98879.34
2023-03-26T12:12:05.055Z,98881.72
2023-03-26T12:14:36.291Z,98873.88
2023-03-26T12:17:11.549Z,98871.00
2023-03-26T12:19:41.224Z,98856.78
2023-03-26T12:22:38.503Z,98868.31
2023-03-26T12:25:18.284Z,98868.94
2023-03-26T12:27:49.354Z,98858.41
2023-03-26T12:30:20.595Z,98867.94
2023-03-26T12:32:49.210Z,98866.22
2023-03-26T12:35:27.151Z,98865.28
2023-03-26T12:37:55.944Z,98848.03
2023-03-26T12:40:25.337Z,98858.53
2023-03-26T12:44:48.987Z,98861.50
2023-03-26T12:45:44.270Z,98855.25
2023-03-26T12:48:15.697Z,98858.06
2023-03-26T12:51:07.147Z,98857.66
2023-03-26T12:53:52.659Z,98854.03
2023-03-26T12:56:21.934Z,98849.75
2023-03-26T12:59:01.146Z,98848.56
2023-03-26T13:01:38.311Z,98844.78
2023-03-26T13:04:13.464Z,98843.41
2023-03-26T13:07:00.250Z,98848.59
2023-03-26T13:09:40.951Z,98839.69
2023-03-26T13:12:40.498Z,98835.56
2023-03-26T13:15:17.768Z,98839.69
2023-03-26T13:18:21.471Z,98829.94
2023-03-26T13:21:08.806Z,98833.28
2023-03-26T13:23:53.586Z,98825.72
2023-03-26T13:26:59.567Z,98824.72
2023-03-26T13:29:46.401Z,98821.84
2023-03-26T13:32:24.641Z,98823.00
2023-03-26T13:35:26.490Z,98817.44
2023-03-26T13:38:02.152Z,98818.59
2023-03-26T13:40:55.473Z,98807.91
2023-03-26T13:43:40.590Z,98811.78
2023-03-26T13:46:23.949Z,98801.97
2023-03-26T13:49:15.516Z,98810.25
2023-03-26T13:51:52.412Z,98810.38
2023-03-26T13:54:33.869Z,98815.00
2023-03-26T13:57:32.381Z,98816.00
2023-03-26T14:00:06.178Z,98816.88
2023-03-26T14:02:39.561Z,98815.25
2023-03-26T14:05:13.737Z,98811.53
2023-03-26T14:07:57.334Z,98821.16
2023-03-26T14:10:28.979Z,98820.03
2023-03-26T14:13:20.316Z,98822.13
2023-03-26T14:15:56.101Z,98825.19
2023-03-26T14:18:22.685Z,98822.00
2023-03-26T14:21:37.451Z,98827.84
2023-03-26T14:24:12.404Z,98840.25
2023-03-26T14:26:58.489Z,98854.88
2023-03-26T14:29:56.653Z,98845.09
2023-03-26T14:32:39.740Z,98837.13
2023-03-26T14:35:39.222Z,98834.72
2023-03-26T14:38:14.854Z,98835.03
2023-03-26T14:41:05.599Z,98839.09
2023-03-26T14:44:04.084Z,98834.50
2023-03-26T14:46:40.912Z,98838.34
2023-03-26T14:49:28.446Z,98830.97
2023-03-26T14:52:18.465Z,98824.22
2023-03-26T14:54:48.274Z,98823.84
2023-03-26T14:57:36.324Z,98825.06
2023-03-26T15:00:24.744Z,98833.31
2023-03-26T15:03:00.616Z,98824.13
2023-03-26T15:05:36.589Z,98822.63
2023-03-26T15:09:00.151Z,98828.81
2023-03-26T15:11:48.177Z,98819.56
2023-03-26T15:14:39.231Z,98807.06
2023-03-26T15:17:35.647Z,98816.41
2023-03-26T15:20:35.496Z,98815.31
2023-03-26T15:23:44.279Z,98812.34
2023-03-26T15:26:30.608Z,98822.63
2023-03-26T15:29:04.644Z,98820.50
2023-03-26T15:31:55.551Z,98815.81
2023-03-26T15:34:34.291Z,98825.78
2023-03-26T15:37:10.648Z,98819.28
2023-03-26T15:40:08.165Z,98821.53
2023-03-26T15:42:48.286Z,98823.81
2023-03-26T15:45:14.999Z,98832.28
2023-03-26T15:47:57.986Z,98826.97
2023-03-26T15:50:32.939Z,98822.72
2023-03-26T15:53:02.603Z,98820.31
2023-03-26T15:55:36.557Z,98815.91
2023-03-26T15:58:07.799Z,98825.63
2023-03-26T16:00:38.308Z,98827.22
2023-03-26T16:03:10.898Z,98821.19
2023-03-26T16:06:15.826Z,98823.13
2023-03-26T16:09:21.991Z,98825.25
2023-03-26T16:12:11.908Z,98833.19
2023-03-26T16:14:43.218Z,98835.69
2023-03-26T16:17:20.617Z,98823.97
2023-03-26T16:19:52.064Z,98828.50
2023-03-26T16:22:42.866Z,98834.25
2023-03-26T16:25:27.281Z,98827.31
2023-03-26T16:28:10.777Z,98836.66
2023-03-26T16:30:38.206Z,98835.22
2023-03-26T16:33:15.611Z,98835.47
2023-03-26T16:36:02.144Z,98831.16
2023-03-26T16:38:50.232Z,98831.59
2023-03-26T16:41:18.972Z,98837.19
2023-03-26T16:43:59.054Z,98834.84
2023-03-26T16:46:50.491Z,98837.84
2023-03-26T16:49:33.595Z,98837.56
2023-03-26T16:52:20.976Z,98840.66
2023-03-26T16:54:47.490Z,98840.09
2023-03-26T16:57:50.096Z,98834.75
2023-03-26T17:00:16.658Z,98835.28
2023-03-26T17:03:08.077Z,98844.81
2023-03-26T17:05:43.918Z,98843.06
2023-03-26T17:08:36.179Z,98835.94
2023-03-26T17:11:24.287Z,98834.72
2023-03-26T17:14:13.309Z,98839.09
2023-03-26T17:16:51.796Z,98845.31
2023-03-26T17:19:21.232Z,98840.84
2023-03-26T17:22:12.034Z,98845.31
2023-03-26T17:24:48.866Z,98848.06
2023-03-26T17:27:47.053Z,98843.84
2023-03-26T17:30:38.103Z,98848.84
2023-03-26T17:33:05.996Z,98851.13
2023-03-26T17:35:39.572Z,98850.41
2023-03-26T17:38:18.038Z,98854.56
2023-03-26T17:41:00.161Z,98849.31
2023-03-26T17:43:38.730Z,98855.16
2023-03-26T17:46:32.916Z,98855.84
2023-03-26T17:49:01.587Z,98852.09
2023-03-26T17:51:46.479Z,98858.59
2023-03-26T17:54:39.449Z,98862.00
2023-03-26T17:57:40.087Z,98860.69
2023-03-26T18:00:16.283Z,98859.88
2023-03-26T18:02:50.562Z,98861.09
2023-03-26T18:05:17.656Z,98863.88
2023-03-26T18:08:06.587Z,98865.16
2023-03-26T18:10:54.298Z,98871.53
2023-03-26T18:13:53.856Z,98867.00
2023-03-26T18:16:25.400Z,98875.31
2023-03-26T18:18:53.737Z,98872.16
2023-03-26T18:21:40.505Z,98869.63
2023-03-26T18:24:14.109Z,98877.00
2023-03-26T18:26:55.418Z,98879.94
2023-03-26T18:29:33.622Z,98877.94
2023-03-26T18:32:22.247Z,98872.16
2023-03-26T18:34:54.108Z,98870.72
2023-03-26T18:37:24.080Z,98871.06
2023-03-26T18:40:24.501Z,98871.06
2023-03-26T18:42:59.330Z,98871.81
2023-03-26T18:45:45.840Z,98867.66
2023-03-26T18:48:19.114Z,98868.53
2023-03-26T18:50:47.429Z,98868.44
2023-03-26T18:53:20.950Z,98862.44
2023-03-26T18:55:50.528Z,98860.88
2023-03-26T18:58:31.417Z,98865.09
2023-03-26T19:01:04.503Z,98853.91
2023-03-26T19:03:35.459Z,98848.06
2023-03-26T19:06:04.665Z,98851.16
2023-03-26T19:08:32.755Z,98853.72
2023-03-26T19:11:04.787Z,98852.38
2023-03-26T19:13:33.124Z,98846.78
2023-03-26T19:16:07.846Z,98846.88
2023-03-26T19:18:37.479Z,98843.75
2023-03-26T19:21:04.577Z,98844.16
2023-03-26T19:23:42.085Z,98838.59
2023-03-26T19:26:10.923Z,98833.56
2023-03-26T19:28:50.712Z,98836.09
2023-03-26T19:31:31.709Z,98830.31
2023-03-26T19:34:15.609Z,98829.25
2023-03-26T19:36:58.230Z,98832.41
2023-03-26T19:39:38.170Z,98829.78
2023-03-26T19:42:06.488Z,98821.06
2023-03-26T19:44:33.666Z,98819.75
2023-03-26T19:47:08.358Z,98816.06
2023-03-26T19:49:47.246Z,98817.47
2023-03-26T19:52:15.110Z,98811.38
2023-03-26T19:55:03.691Z,98807.69
2023-03-26T19:57:32.194Z,98798.00
2023-03-26T19:59:59.769Z,98796.53
2023-03-26T20:02:27.486Z,98804.75
2023-03-26T20:04:54.185Z,98794.25
2023-03-26T20:07:35.502Z,98794.66
2023-03-26T20:10:02.937Z,98792.84
2023-03-26T20:12:29.701Z,98790.13
2023-03-26T20:14:56.229Z,98787.59
2023-03-26T20:17:22.734Z,98781.06
2023-03-26T20:19:49.222Z,98778.47
2023-03-26T20:22:20.089Z,98778.88
2023-03-26T20:24:46.813Z,98783.50
2023-03-26T20:27:14.560Z,98769.28
2023-03-26T20:29:42.253Z,98768.22
2023-03-26T20:32:20.364Z,98770.47
2023-03-26T20:34:49.859Z,98772.38
2023-03-26T20:37:17.577Z,98775.28
2023-03-26T20:39:45.652Z,98769.66
2023-03-26T20:42:15.396Z,98770.13
2023-03-26T20:44:42.830Z,98769.53
2023-03-26T20:47:12.687Z,98771.56
2023-03-26T20:49:40.254Z,98770.97
2023-03-26T20:52:06.939Z,98765.84
2023-03-26T20:54:33.544Z,98765.66
2023-03-26T20:57:00.276Z,98766.28
2023-03-26T20:59:28.421Z,98761.03
2023-03-26T21:01:56.993Z,98769.84
2023-03-26T21:04:24.791Z,98763.38
2023-03-26T21:06:53.418Z,98762.94
2023-03-26T21:09:25.606Z,98757.31
2023-03-26T21:11:52.300Z,98753.22
2023-03-26T21:14:21.147Z,98752.22
2023-03-26T21:16:48.284Z,98763.81
2023-03-26T21:19:15.811Z,98755.75
2023-03-26T21:21:48.244Z,98761.47
2023-03-26T21:24:23.932Z,98761.84
2023-03-26T21:26:50.536Z,98760.19
2023-03-26T21:29:17.305Z,98764.72
2023-03-26T21:31:44.355Z,98762.00
2023-03-26T21:34:13.270Z,98765.88
2023-03-26T21:36:40.353Z,98773.41
2023-03-26T21:39:07.784Z,98775.16
2023-03-26T21:42:04.780Z,98776.13
2023-03-26T21:44:33.542Z,98785.59
2023-03-26T21:47:00.851Z,98792.44
2023-03-26T21:49:28.005Z,98794.34
2023-03-26T21:51:54.930Z,98800.28
2023-03-26T21:54:27.941Z,98800.28
2023-03-26T21:57:26.653Z,98804.28
2023-03-26T22:00:16.528Z,98811.75
2023-03-26T22:03:19.959Z,98806.22
2023-03-26T22:05:52.371Z,98809.84
2023-03-26T22:08:27.216Z,98817.75
2023-03-26T22:10:53.883Z,98807.63
2023-03-26T22:13:20.573Z,98801.97
2023-03-26T22:15:47.166Z,98802.66
2023-03-26T22:18:14.295Z,98800.72
2023-03-26T22:20:43.341Z,98803.34
2023-03-26T22:23:09.965Z,98801.97
2023-03-26T22:25:36.503Z,98806.13
2023-03-26T22:28:04.373Z,98807.69
2023-03-26T22:30:31.518Z,98810.16
2023-03-26T22:32:58.813Z,98808.06
2023-03-26T22:35:26.228Z,98813.44
2023-03-26T22:37:53.017Z,98808.91
2023-03-26T22:40:27.788Z,98806.63
2023-03-26T22:42:54.383Z,98814.09
2023-03-26T22:45:22.654Z,98813.75
2023-03-26T22:47:49.385Z,98808.94
2023-03-26T22:50:16.129Z,98815.25
2023-03-26T22:52:42.677Z,98810.09
2023-03-26T22:55:10.937Z,98818.19
2023-03-26T22:57:38.644Z,98812.81
2023-03-26T23:00:14.897Z,98809.34
2023-03-26T23:02:42.088Z,98806.06
2023-03-26T23:05:09.221Z,98810.78
2023-03-26T23:07:35.807Z,98813.03
2023-03-26T23:10:02.381Z,98808.63
2023-03-26T23:12:28.962Z,98805.06
2023-03-26T23:14:55.481Z,98812.38
2023-03-26T23:17:22.325Z,98821.91
2023-03-26T23:19:49.369Z,98809.88
2023-03-26T23:22:16.483Z,98811.34
2023-03-26T23:24:43.057Z,98815.00
2023-03-26T23:27:10.743Z,98827.09
2023-03-26T23:29:37.377Z,98827.97
2023-03-26T23:32:04.100Z,98829.94
2023-03-26T23:34:51.714Z,98838.88
2023-03-26T23:37:23.216Z,98833.63
2023-03-26T23:39:51.149Z,98839.47
2023-03-26T23:42:28.353Z,98841.78
2023-03-26T23:44:56.859Z,98838.25
2023-03-26T23:47:23.746Z,98838.72
2023-03-26T23:49:50.564Z,98839.25
2023-03-26T23:52:17.103Z,98842.69
2023-03-26T23:54:44.699Z,98842.75
2023-03-26T23:57:11.362Z,98844.66
2023-03-26T23:59:38.286Z,98844.88
